createdAt,value
2022-11-30T00:01:33.837Z,18.43
2022-11-30T00:04:37.910Z,18.33
2022-11-30T00:07:40.905Z,17.70
2022-11-30T00:10:43.788Z,17.93
2022-11-30T00:13:46.499Z,17.30
2022-11-30T00:16:49.270Z,17.80
2022-11-30T00:19:53.733Z,17.70
2022-11-30T00:22:57.262Z,18.87
2022-11-30T00:26:03.112Z,18.50
2022-11-30T00:29:05.915Z,19.27
2022-11-30T00:32:08.657Z,17.40
2022-11-30T00:35:12.765Z,17.63
2022-11-30T00:38:15.718Z,20.43
2022-11-30T00:41:19.505Z,20.80
2022-11-30T00:44:22.311Z,18.10
2022-11-30T00:47:25.110Z,20.60
2022-11-30T00:50:29.154Z,19.80
2022-11-30T00:53:32.033Z,19.97
2022-11-30T00:56:34.812Z,18.03
2022-11-30T00:59:37.646Z,19.37
2022-11-30T01:02:40.461Z,19.43
2022-11-30T01:05:44.634Z,20.27
2022-11-30T01:08:48.073Z,18.87
2022-11-30T01:11:50.839Z,20.20
2022-11-30T01:14:53.549Z,18.67
2022-11-30T01:17:56.277Z,19.43
2022-11-30T01:21:00.329Z,19.37
2022-11-30T01:24:03.811Z,20.37
2022-11-30T01:27:06.541Z,19.47
2022-11-30T01:30:10.212Z,20.00
2022-11-30T01:33:12.932Z,19.73
2022-11-30T01:36:18.455Z,19.87
2022-11-30T01:39:21.217Z,19.03
2022-11-30T01:42:23.960Z,18.00
2022-11-30T01:45:26.696Z,19.17
2022-11-30T01:48:30.334Z,19.20
2022-11-30T01:51:39.215Z,18.10
2022-11-30T01:54:47.180Z,19.53
2022-11-30T01:57:53.859Z,19.27
2022-11-30T02:00:56.852Z,18.43
2022-11-30T02:04:04.516Z,19.20
2022-11-30T02:07:09.580Z,19.13
2022-11-30T02:10:15.956Z,19.60
2022-11-30T02:13:41.610Z,18.70
2022-11-30T02:16:55.573Z,17.90
2022-11-30T02:20:27.713Z,17.83
2022-11-30T02:24:12.377Z,18.73
2022-11-30T02:27:26.178Z,18.57
2022-11-30T02:30:35.131Z,18.60
2022-11-30T02:33:41.437Z,17.53
2022-11-30T02:36:47.069Z,19.07
2022-11-30T02:39:49.789Z,18.20
2022-11-30T02:42:55.558Z,17.73
2022-11-30T02:46:08.863Z,18.90
2022-11-30T02:49:18.632Z,18.83
2022-11-30T02:52:25.268Z,18.00
2022-11-30T02:55:30.410Z,18.87
2022-11-30T02:58:33.214Z,16.60
2022-11-30T03:01:37.836Z,16.00
2022-11-30T03:04:40.592Z,15.43
2022-11-30T03:07:43.422Z,14.77
2022-11-30T03:10:46.242Z,13.80
2022-11-30T03:13:49.012Z,15.40
2022-11-30T03:16:53.184Z,16.33
2022-11-30T03:19:55.939Z,15.40
2022-11-30T03:23:02.228Z,14.63
2022-11-30T03:26:06.809Z,15.33
2022-11-30T03:29:09.888Z,15.17
2022-11-30T03:32:13.957Z,15.47
2022-11-30T03:35:16.876Z,14.93
2022-11-30T03:38:19.696Z,15.77
2022-11-30T03:41:22.503Z,16.30
2022-11-30T03:44:25.298Z,16.37
2022-11-30T03:47:29.334Z,15.93
2022-11-30T03:50:32.468Z,15.27
2022-11-30T03:53:35.538Z,15.60
2022-11-30T03:56:38.450Z,15.00
2022-11-30T03:59:41.238Z,14.13
2022-11-30T04:02:45.432Z,14.67
2022-11-30T04:05:48.643Z,15.80
2022-11-30T04:08:51.794Z,15.67
2022-11-30T04:11:54.631Z,15.57
2022-11-30T04:14:57.400Z,16.97
2022-11-30T04:18:01.504Z,16.07
2022-11-30T04:21:04.941Z,15.43
2022-11-30T04:24:09.049Z,17.53
2022-11-30T04:27:11.830Z,16.53
2022-11-30T04:30:15.953Z,17.43
2022-11-30T04:33:20.093Z,16.60
2022-11-30T04:36:22.926Z,16.13
2022-11-30T04:39:25.906Z,17.07
2022-11-30T04:42:28.663Z,16.80
2022-11-30T04:45:35.313Z,16.57
2022-11-30T04:48:40.003Z,17.43
2022-11-30T04:51:42.814Z,16.63
2022-11-30T04:54:45.973Z,14.53
2022-11-30T04:57:49.770Z,14.83
2022-11-30T05:00:54.841Z,16.00
2022-11-30T05:04:00.276Z,15.37
2022-11-30T05:07:03.557Z,14.90
2022-11-30T05:10:08.104Z,15.87
2022-11-30T05:13:10.890Z,14.70
2022-11-30T05:16:13.669Z,14.67
2022-11-30T05:19:17.816Z,14.10
2022-11-30T05:22:20.579Z,15.77
2022-11-30T05:25:23.351Z,15.90
2022-11-30T05:28:26.058Z,17.77
2022-11-30T05:31:29.061Z,17.37
2022-11-30T05:34:49.426Z,16.53
2022-11-30T05:37:53.168Z,18.43
2022-11-30T05:41:01.454Z,17.87
2022-11-30T05:44:04.536Z,14.90
2022-11-30T05:47:07.791Z,17.23
2022-11-30T05:50:12.391Z,16.93
2022-11-30T05:53:15.084Z,15.83
2022-11-30T05:56:21.090Z,17.17
2022-11-30T05:59:24.401Z,17.07
2022-11-30T06:02:28.440Z,17.23
2022-11-30T06:05:36.368Z,15.57
2022-11-30T06:08:39.298Z,15.67
2022-11-30T06:11:42.018Z,11.70
2022-11-30T06:14:45.124Z,17.70
2022-11-30T06:17:48.053Z,17.10
2022-11-30T06:20:52.148Z,17.00
2022-11-30T06:23:54.942Z,16.63
2022-11-30T06:26:57.697Z,15.47
2022-11-30T06:30:00.433Z,16.77
2022-11-30T06:33:03.674Z,16.63
2022-11-30T06:36:08.789Z,18.13
2022-11-30T06:39:12.278Z,16.23
2022-11-30T06:42:15.031Z,15.97
2022-11-30T06:45:18.027Z,14.03
2022-11-30T06:48:22.961Z,15.80
2022-11-30T06:51:27.058Z,14.80
2022-11-30T06:54:29.902Z,13.93
2022-11-30T06:57:32.644Z,14.50
2022-11-30T07:00:35.564Z,16.17
2022-11-30T07:03:38.683Z,15.70
2022-11-30T07:06:43.438Z,17.10
2022-11-30T07:09:46.174Z,17.27
2022-11-30T07:12:48.893Z,17.67
2022-11-30T07:15:51.823Z,16.20
2022-11-30T07:18:54.591Z,17.57
2022-11-30T07:21:58.674Z,16.40
2022-11-30T07:25:18.790Z,18.90
2022-11-30T07:28:21.541Z,16.60
2022-11-30T07:31:27.068Z,17.03
2022-11-30T07:34:30.617Z,15.40
2022-11-30T07:37:34.703Z,15.73
2022-11-30T07:40:37.444Z,14.47
2022-11-30T07:43:40.559Z,15.13
2022-11-30T07:46:43.383Z,15.07
2022-11-30T07:49:46.187Z,14.73
2022-11-30T07:52:50.228Z,13.50
2022-11-30T07:55:56.975Z,13.87
2022-11-30T07:59:01.795Z,15.33
2022-11-30T08:02:04.816Z,15.37
2022-11-30T08:05:11.323Z,16.40
2022-11-30T08:08:15.456Z,15.00
2022-11-30T08:11:20.277Z,15.27
2022-11-30T08:14:23.061Z,15.70
2022-11-30T08:17:25.899Z,14.87
2022-11-30T08:20:28.626Z,14.73
2022-11-30T08:23:34.844Z,15.40
2022-11-30T08:26:37.677Z,16.03
2022-11-30T08:29:41.335Z,15.60
2022-11-30T08:32:44.111Z,15.17
2022-11-30T08:35:46.894Z,15.23
2022-11-30T08:38:51.033Z,17.13
2022-11-30T08:41:53.909Z,15.87
2022-11-30T08:44:56.671Z,15.73
2022-11-30T08:47:59.569Z,14.83
2022-11-30T08:51:02.976Z,14.40
2022-11-30T08:54:07.202Z,16.30
2022-11-30T08:57:09.915Z,20.30
2022-11-30T09:00:13.930Z,16.50
2022-11-30T09:03:16.661Z,20.23
2022-11-30T09:06:21.127Z,21.33
2022-11-30T09:09:25.438Z,15.80
2022-11-30T09:12:28.203Z,18.07
2022-11-30T09:15:31.104Z,15.27
2022-11-30T09:18:34.918Z,13.43
2022-11-30T09:21:37.770Z,18.07
2022-11-30T09:24:41.897Z,15.00
2022-11-30T09:27:44.669Z,15.67
2022-11-30T09:30:47.453Z,18.00
2022-11-30T09:33:52.584Z,14.73
2022-11-30T09:36:55.960Z,15.00
2022-11-30T09:40:00.117Z,15.77
2022-11-30T09:43:07.880Z,14.87
2022-11-30T09:46:12.148Z,16.00
2022-11-30T09:49:20.075Z,14.87
2022-11-30T09:52:29.638Z,18.93
2022-11-30T09:55:40.028Z,15.67
2022-11-30T09:58:49.057Z,17.37
2022-11-30T10:01:56.651Z,16.30
2022-11-30T10:05:00.811Z,15.03
2022-11-30T10:08:20.528Z,14.20
2022-11-30T10:11:42.270Z,14.87
2022-11-30T10:15:00.607Z,13.57
2022-11-30T10:18:13.192Z,15.37
2022-11-30T10:21:28.400Z,14.23
2022-11-30T10:24:45.749Z,16.63
2022-11-30T10:27:53.303Z,14.37
2022-11-30T10:30:56.050Z,14.40
2022-11-30T10:34:04.701Z,13.80
2022-11-30T10:37:12.579Z,13.57
2022-11-30T10:40:20.798Z,14.37
2022-11-30T10:43:29.830Z,13.50
2022-11-30T10:46:37.625Z,12.53
2022-11-30T10:49:45.306Z,13.20
2022-11-30T10:52:52.088Z,12.80
2022-11-30T10:56:02.019Z,12.63
2022-11-30T10:59:12.893Z,13.43
2022-11-30T11:02:36.451Z,14.40
2022-11-30T11:05:39.222Z,13.50
2022-11-30T11:08:45.467Z,12.10
2022-11-30T11:11:54.996Z,12.93
2022-11-30T11:15:11.668Z,13.17
2022-11-30T11:18:24.460Z,14.27
2022-11-30T11:21:28.467Z,15.13
2022-11-30T11:24:31.422Z,14.20
2022-11-30T11:27:37.535Z,14.10
2022-11-30T11:30:45.579Z,15.53
2022-11-30T11:33:53.734Z,16.03
2022-11-30T11:37:06.298Z,14.57
2022-11-30T11:40:15.914Z,17.33
2022-11-30T11:43:19.643Z,16.60
2022-11-30T11:46:24.149Z,14.83
2022-11-30T11:49:29.745Z,16.50
2022-11-30T11:52:32.483Z,17.20
2022-11-30T11:55:36.517Z,16.90
2022-11-30T11:58:44.084Z,17.20
2022-11-30T12:01:56.414Z,15.53
2022-11-30T12:05:04.044Z,17.00
2022-11-30T12:08:14.466Z,16.47
2022-11-30T12:11:20.599Z,18.93
2022-11-30T12:14:23.457Z,20.73
2022-11-30T12:17:52.378Z,16.23
2022-11-30T12:20:59.458Z,18.17
2022-11-30T12:24:15.768Z,18.87
2022-11-30T12:27:26.366Z,18.77
2022-11-30T12:30:38.958Z,17.27
2022-11-30T12:34:14.769Z,18.63
2022-11-30T12:37:25.561Z,30.27
2022-11-30T12:40:37.622Z,19.03
2022-11-30T12:43:59.403Z,31.50
2022-11-30T12:47:20.298Z,77.37
2022-11-30T12:50:39.365Z,26.80
2022-11-30T12:53:48.421Z,21.80
2022-11-30T12:56:56.130Z,22.97
2022-11-30T13:00:07.166Z,19.60
2022-11-30T13:03:42.588Z,20.23
2022-11-30T13:06:49.782Z,20.10
2022-11-30T13:09:57.699Z,23.83
2022-11-30T13:13:03.240Z,20.53
2022-11-30T13:16:09.514Z,19.13
2022-11-30T13:19:27.556Z,21.60
2022-11-30T13:22:43.945Z,21.50
2022-11-30T13:29:50.349Z,19.43
2022-11-30T13:32:58.320Z,23.73
2022-11-30T13:36:04.999Z,22.87
2022-11-30T13:39:30.815Z,20.97
2022-11-30T13:42:36.281Z,24.07
2022-11-30T13:45:39.216Z,23.17
2022-11-30T13:48:43.881Z,21.67
2022-11-30T13:51:56.775Z,21.60
2022-11-30T13:55:43.045Z,18.40
2022-11-30T13:59:18.985Z,19.07
2022-11-30T14:03:00.169Z,17.90
2022-11-30T14:06:28.962Z,19.83
2022-11-30T14:09:58.308Z,20.83
2022-11-30T14:13:03.359Z,18.73
2022-11-30T14:16:21.356Z,17.90
2022-11-30T14:19:24.271Z,19.10
2022-11-30T14:22:30.426Z,19.93
2022-11-30T14:25:36.150Z,16.90
2022-11-30T14:28:43.909Z,16.17
2022-11-30T14:31:57.785Z,19.67
2022-11-30T14:35:08.947Z,22.03
2022-11-30T14:38:24.493Z,21.10
2022-11-30T14:41:29.356Z,21.20
2022-11-30T14:44:35.710Z,22.00
2022-11-30T14:47:41.322Z,19.87
2022-11-30T14:50:49.473Z,20.50
2022-11-30T14:53:59.629Z,19.80
2022-11-30T14:57:12.414Z,27.87
2022-11-30T15:00:17.863Z,24.70
2022-11-30T15:03:26.461Z,19.03
2022-11-30T15:06:33.304Z,23.80
2022-11-30T15:09:37.697Z,23.83
2022-11-30T15:12:41.754Z,22.87
2022-11-30T15:15:52.378Z,41.97
2022-11-30T15:18:57.335Z,18.30
2022-11-30T15:22:00.385Z,21.73
2022-11-30T15:25:05.840Z,17.07
2022-11-30T15:28:10.640Z,21.97
2022-11-30T15:31:17.763Z,20.33
2022-11-30T15:34:23.091Z,19.77
2022-11-30T15:37:31.178Z,24.47
2022-11-30T15:40:35.899Z,16.80
2022-11-30T15:43:40.708Z,17.47
2022-11-30T15:46:56.959Z,16.80
2022-11-30T15:49:59.772Z,20.73
2022-11-30T15:53:04.305Z,22.10
2022-11-30T15:56:10.487Z,24.20
2022-11-30T15:59:23.450Z,19.70
2022-11-30T16:02:32.248Z,17.70
2022-11-30T16:05:35.035Z,21.23
2022-11-30T16:08:37.904Z,17.70
2022-11-30T16:11:42.094Z,15.40
2022-11-30T16:14:44.861Z,19.77
2022-11-30T16:17:47.668Z,19.20
2022-11-30T16:20:52.903Z,19.53
2022-11-30T16:23:55.661Z,20.83
2022-11-30T16:26:59.981Z,24.93
2022-11-30T16:30:03.427Z,24.67
2022-11-30T16:33:07.076Z,25.63
2022-11-30T16:36:14.448Z,22.67
2022-11-30T16:39:18.570Z,20.43
2022-11-30T16:42:32.182Z,17.67
2022-11-30T16:45:37.767Z,15.43
2022-11-30T16:48:41.311Z,21.13
2022-11-30T16:51:44.468Z,23.10
2022-11-30T16:54:47.190Z,15.70
2022-11-30T16:57:52.019Z,13.43
2022-11-30T17:00:55.064Z,12.77
2022-11-30T17:03:58.060Z,11.80
2022-11-30T17:07:02.990Z,12.63
2022-11-30T17:10:07.136Z,12.57
2022-11-30T17:13:14.914Z,11.20
2022-11-30T17:16:17.832Z,10.57
2022-11-30T17:19:20.827Z,9.80
2022-11-30T17:22:23.562Z,9.27
2022-11-30T17:25:26.462Z,11.00
2022-11-30T17:28:30.597Z,10.57
2022-11-30T17:31:33.813Z,11.67
2022-11-30T17:34:36.595Z,12.67
2022-11-30T17:37:40.102Z,14.97
2022-11-30T17:40:43.128Z,13.97
2022-11-30T17:43:47.297Z,10.47
2022-11-30T17:46:50.094Z,10.50
2022-11-30T17:49:52.889Z,10.33
2022-11-30T17:52:55.735Z,10.93
2022-11-30T17:56:05.966Z,11.10
2022-11-30T17:59:10.213Z,10.00
2022-11-30T18:02:13.619Z,14.53
2022-11-30T18:05:16.598Z,6.60
2022-11-30T18:08:19.617Z,15.13
2022-11-30T18:11:24.664Z,12.60
2022-11-30T18:14:28.848Z,9.47
2022-11-30T18:17:32.041Z,9.30
2022-11-30T18:20:34.923Z,10.20
2022-11-30T18:23:38.142Z,8.97
2022-11-30T18:26:41.661Z,10.10
2022-11-30T18:29:45.751Z,9.63
2022-11-30T18:32:48.864Z,10.03
2022-11-30T18:35:51.736Z,9.97
2022-11-30T18:38:54.860Z,12.83
2022-11-30T18:41:57.756Z,12.07
2022-11-30T18:45:02.274Z,9.57
2022-11-30T18:48:06.400Z,9.50
2022-11-30T18:51:13.598Z,7.40
2022-11-30T18:54:16.373Z,8.83
2022-11-30T18:57:19.169Z,7.97
2022-11-30T19:00:24.766Z,9.40
2022-11-30T19:03:27.559Z,10.83
2022-11-30T19:06:32.785Z,10.03
2022-11-30T19:09:35.547Z,13.20
2022-11-30T19:12:38.508Z,9.50
2022-11-30T19:15:43.361Z,10.40
2022-11-30T19:18:48.403Z,12.07
2022-11-30T19:21:51.333Z,10.17
2022-11-30T19:24:54.042Z,10.33
2022-11-30T19:27:56.825Z,9.43
2022-11-30T19:31:02.469Z,10.63
2022-11-30T19:34:11.974Z,9.07
2022-11-30T19:37:15.623Z,9.43
2022-11-30T19:40:18.531Z,11.50
2022-11-30T19:43:21.268Z,11.93
2022-11-30T19:46:26.238Z,11.57
2022-11-30T19:49:28.977Z,12.90
2022-11-30T19:52:31.828Z,11.33
2022-11-30T19:55:34.612Z,13.23
2022-11-30T19:58:37.371Z,12.43
2022-11-30T20:01:41.809Z,16.27
2022-11-30T20:04:44.736Z,14.23
2022-11-30T20:07:47.572Z,13.60
2022-11-30T20:10:50.408Z,16.47
2022-11-30T20:13:53.293Z,13.07
2022-11-30T20:16:57.387Z,15.47
2022-11-30T20:20:00.127Z,14.50
2022-11-30T20:23:04.616Z,13.63
2022-11-30T20:26:15.697Z,13.73
2022-11-30T20:29:19.240Z,14.23
2022-11-30T20:32:23.996Z,13.50
2022-11-30T20:35:26.871Z,13.47
2022-11-30T20:38:30.124Z,14.70
2022-11-30T20:41:33.981Z,14.87
2022-11-30T20:44:37.364Z,13.60
2022-11-30T20:47:41.459Z,12.97
2022-11-30T20:51:01.194Z,11.63
2022-11-30T20:54:08.172Z,13.77
2022-11-30T20:57:10.955Z,13.50
2022-11-30T21:00:14.988Z,13.80
2022-11-30T21:03:19.143Z,14.20
2022-11-30T21:06:22.002Z,13.13
2022-11-30T21:09:24.751Z,13.27
2022-11-30T21:12:27.663Z,12.37
2022-11-30T21:15:30.515Z,15.13
2022-11-30T21:18:34.872Z,14.60
2022-11-30T21:21:37.744Z,16.90
2022-11-30T21:24:40.551Z,15.87
2022-11-30T21:27:43.432Z,14.07
2022-11-30T21:30:46.307Z,13.80
2022-11-30T21:33:53.627Z,13.00
2022-11-30T21:36:56.733Z,13.40
2022-11-30T21:39:59.559Z,14.37
2022-11-30T21:43:02.308Z,15.50
2022-11-30T21:46:07.645Z,16.83
2022-11-30T21:49:12.338Z,14.53
2022-11-30T21:52:15.268Z,14.13
2022-11-30T21:55:18.414Z,16.67
2022-11-30T21:58:21.651Z,14.20
2022-11-30T22:01:27.264Z,16.07
2022-11-30T22:04:38.012Z,15.53
2022-11-30T22:07:41.055Z,14.63
2022-11-30T22:10:44.040Z,13.83
2022-11-30T22:13:50.530Z,13.73
2022-11-30T22:16:53.738Z,13.17
2022-11-30T22:19:57.987Z,13.77
2022-11-30T22:23:00.945Z,11.53
2022-11-30T22:26:15.622Z,13.73
2022-11-30T22:29:20.869Z,14.60
2022-11-30T22:32:24.236Z,14.70
2022-11-30T22:35:28.615Z,14.33
2022-11-30T22:38:31.904Z,15.27
2022-11-30T22:41:34.860Z,14.67
2022-11-30T22:44:37.722Z,14.77
2022-11-30T22:47:40.501Z,14.93
2022-11-30T22:50:44.666Z,14.47
2022-11-30T22:53:48.280Z,14.63
2022-11-30T22:56:51.075Z,13.87
2022-11-30T22:59:53.783Z,15.20
2022-11-30T23:02:56.651Z,14.23
2022-11-30T23:06:02.307Z,15.63
2022-11-30T23:09:06.661Z,16.27
2022-11-30T23:12:09.605Z,15.07
2022-11-30T23:15:12.608Z,14.90
2022-11-30T23:18:15.395Z,15.53
2022-11-30T23:21:21.485Z,13.80
2022-11-30T23:24:24.362Z,14.87
2022-11-30T23:27:27.130Z,16.60
2022-11-30T23:30:30.053Z,14.97
2022-11-30T23:33:32.832Z,15.53
2022-11-30T23:36:37.935Z,15.73
2022-11-30T23:39:40.673Z,16.13
2022-11-30T23:42:43.477Z,15.90
2022-11-30T23:45:46.644Z,16.33
2022-11-30T23:48:49.636Z,16.17
2022-11-30T23:51:53.743Z,17.03
2022-11-30T23:54:56.567Z,15.60
2022-11-30T23:57:59.345Z,16.10
